• Join FlightAware (Why Join?)
  • Login
  • US Flag 
09:11AM EDT


 

Airport Tracker/Info


-or-


 

Live Flight TrackerFlight Track Log ✈ AWI3778 ✈ 04-May-2013 ✈ KJAX - KDCA

Flight Track Log - Related Links

Times and Time Zones

All times are in EDT time to prevent confusion due to time zone crossing. See the AWI3778 flight status page for this flight to view local times or setup timezone preferences in your user account.

Time Position Orientation Groundspeed Altitude Reporting Facility
EDT Latitude Longitude Course Direction KTS MPH feet Rate Location/Type
02:35PM 30.4717 -81.6753 90° East 143 165 1,000  Level Jacksonville Center
02:36PM 30.5006 -81.6508 36° Northeast 220 253 2,800 1,680 Climbing Jacksonville Center
02:37PM 30.5694 -81.6547 357° North 261 300 4,400 1,560 Climbing Jacksonville Center
02:38PM 30.6999 -81.4454 44° Northeast  Level FlightAware Approximate
02:38PM 30.6300 -81.6564 359° North 277 319 5,700  Level Jacksonville Center
02:39PM 30.7709 -81.3642 44° Northeast  Level FlightAware Approximate
02:39PM 30.7114 -81.6556 North 293 337 7,900  Level Jacksonville Center
02:40PM 30.8500 -81.2967 90° East  Level FlightAware Approximate
02:40PM 30.7886 -81.6472 North 307 353 9,700  Level Jacksonville Center
02:41PM 30.8761 -81.6339 North 313 360 11,400 1,680 Climbing Jacksonville Center
02:42PM 30.9700 -81.6158 North 325 374 13,100 1,740 Climbing Jacksonville Center
02:43PM 31.0636 -81.5853 16° North 337 388 14,900 1,620 Climbing Jacksonville Center
02:44PM 31.1572 -81.5500 18° North 342 394 16,400 1,500 Climbing Jacksonville Center
02:45PM 31.2550 -81.5169 16° North 347 399 18,000 1,500 Climbing Jacksonville Center
02:46PM 31.3694 -81.4739 18° North 362 417 19,500 1,260 Climbing Jacksonville Center
02:47PM 31.4608 -81.4411 17° North 380 437 20,600 1,080 Climbing Jacksonville Center
02:48PM 31.5772 -81.4000 17° North 385 443 21,700 1,020 Climbing Jacksonville Center
02:49PM 31.6856 -81.3617 17° North 396 456 22,700 960 Climbing Jacksonville Center
02:50PM 31.7831 -81.3283 16° North 396 456 23,700 1,020 Climbing Jacksonville Center
02:51PM 31.8803 -81.2411 37° Northeast 406 467 24,800 900 Climbing Jacksonville Center
02:52PM 31.9583 -81.1539 43° Northeast 411 473 25,600 840 Climbing Jacksonville Center
02:53PM 32.0486 -81.0469 45° Northeast 411 473 26,500 840 Climbing Jacksonville Center
02:54PM 32.1328 -80.9472 45° Northeast 411 473 27,300 660 Climbing Jacksonville Center
02:55PM 32.2086 -80.8619 44° Northeast 419 482 27,900 600 Climbing Jacksonville Center
02:56PM 32.3008 -80.7494 46° Northeast 419 482 28,500 600 Climbing Jacksonville Center
02:57PM 32.3744 -80.6592 46° Northeast 419 482 29,200 660 Climbing Jacksonville Center
02:58PM 32.4603 -80.5586 45° Northeast 419 482 29,900 660 Climbing Jacksonville Center
02:59PM 32.5439 -80.4603 45° Northeast 419 482 30,600 600 Climbing Jacksonville Center
03:00PM 32.6275 -80.3569 46° Northeast 419 482 31,100 540 Climbing Jacksonville Center
03:01PM 32.7219 -80.2753 36° Northeast 419 482 31,700 600 Climbing Jacksonville Center
03:02PM 32.8228 -80.2081 29° Northeast 419 482 32,400 540 Climbing Jacksonville Center
03:03PM 32.9464 -80.1300 28° Northeast 419 482 32,800 300 Climbing Jacksonville Center
03:04PM 33.0325 -80.0681 31° Northeast 422 486 33,000 60 Climbing Jacksonville Center
03:05PM 33.1397 -80.0025 27° Northeast 428 493 33,000  Level Jacksonville Center
03:06PM 33.2467 -79.9344 28° Northeast 428 493 33,000  Level Jacksonville Center
03:07PM 33.3700 -79.8558 28° Northeast 441 507 33,000  Level Jacksonville Center
03:08PM 33.4831 -79.7797 29° Northeast 446 513 33,000  Level Jacksonville Center
03:09PM 33.5958 -79.7058 29° Northeast 446 513 33,000  Level Jacksonville Center
03:10PM 33.7086 -79.6319 29° Northeast 446 513 33,000  Level Jacksonville Center
03:11PM 33.8214 -79.5553 29° Northeast 446 513 33,000  Level Jacksonville Center
03:12PM 33.9364 -79.4808 28° Northeast 451 519 33,000  Level Jacksonville Center
03:14PM 34.1186 -79.3619 28° Northeast 442 509 33,000  Level Washington Center
03:15PM 34.2336 -79.2869 28° Northeast 454 522 33,000  Level Washington Center
03:16PM 34.3381 -79.2211 27° Northeast 461 531 33,000  Level Washington Center
03:17PM 34.4525 -79.1558 25° Northeast 461 531 33,000  Level Washington Center
03:18PM 34.5672 -79.0900 25° Northeast 455 524 33,000  Level Washington Center
03:19PM 34.6817 -79.0244 25° Northeast 455 524 33,000  Level Washington Center
03:20PM 34.7942 -78.9583 26° Northeast 455 524 33,000  Level Washington Center
03:21PM 34.9067 -78.8919 26° Northeast 455 524 33,000  Level Washington Center
03:22PM 35.0192 -78.8256 26° Northeast 455 524 33,000  Level Washington Center
03:23PM 35.1314 -78.7614 25° Northeast 455 524 33,000  Level Washington Center
03:24PM 35.2436 -78.6947 26° Northeast 455 524 33,000  Level Washington Center
03:25PM 35.3667 -78.6206 26° Northeast 450 518 33,000  Level Washington Center
03:26PM 35.4703 -78.5606 25° Northeast 450 518 33,000 -300 Level Washington Center
03:27PM 35.5933 -78.4861 26° Northeast 450 518 32,500 -780 Descending Washington Center
03:28PM 35.7158 -78.4164 25° Northeast 463 533 31,500 -780 Descending Washington Center
03:29PM 35.8344 -78.3436 26° Northeast 468 539 31,000 -360 Descending Washington Center
03:30PM 35.9508 -78.2758 25° Northeast 468 539 30,900 -300 Descending Washington Center
03:31PM 36.0714 -78.2028 26° Northeast 468 539 30,400 -1,200 Descending Washington Center
03:32PM 36.1917 -78.1297 26° Northeast 468 539 28,600 -1,680 Descending Washington Center
03:33PM 36.3144 -78.0564 26° Northeast 473 544 27,100 -840 Descending Washington Center
03:34PM 36.4283 -77.9850 27° Northeast 466 536 27,000 -60 Descending Washington Center
03:35PM 36.5489 -77.9136 25° Northeast 460 529 27,000  Level Washington Center
03:36PM 36.6608 -77.8419 27° Northeast 460 529 27,000 -780 Level Washington Center
03:37PM 36.7661 -77.7775 26° Northeast 460 529 25,500 -1,560 Descending Washington Center
03:38PM 36.8803 -77.7056 27° Northeast 460 529 24,000 -1,560 Descending Washington Center
03:39PM 36.9961 -77.6358 26° Northeast 455 524 22,500 -1,020 Descending Washington Center
03:40PM 37.1058 -77.5686 26° Northeast 450 518 22,000 -300 Descending Washington Center
03:41PM 37.2133 -77.4983 27° Northeast 444 511 22,000  Level Washington Center
03:42PM 37.3206 -77.4331 26° Northeast 438 504 22,000  Level Washington Center
03:43PM 37.4386 -77.3600 26° Northeast 432 497 22,000 -600 Level Washington Center
03:44PM 37.5539 -77.3103 19° North 427 491 20,800 -1,560 Descending Washington Center
03:45PM 37.6753 -77.2842 10° North 427 491 18,900 -1,860 Descending Washington Center
03:46PM 37.7883 -77.2578 10° North 427 491 17,200 -1,860 Descending Washington Center
03:47PM 37.8972 -77.2364 North 420 483 15,300 -3,600 Descending Washington Center
03:48PM 38.0017 -77.2150 North 400 460 10,000 -1,560 Descending Washington Center
03:49PM 38.0936 -77.2011 North 383 441 12,200 120 Climbing Washington Center
03:50PM 38.2108 -77.1719 11° North 375 432 10,300 -1,140 Descending Washington Center
03:51PM 38.2922 -77.1553 North 375 432 10,000 -180 Descending Washington Center
03:52PM 38.4053 -77.1364 North 370 426 10,000  Level Washington Center
03:53PM 38.5014 -77.1144 10° North 370 426 10,000  Level Washington Center
03:54PM 38.5975 -77.0925 10° North 364 419 10,000 -540 Level Washington Center
03:55PM 38.6750 -77.0756 10° North 323 372 9,000 -1,560 Descending Washington Center
03:56PM 38.7500 -77.0664 North 288 331 6,900 -1,980 Descending Washington Center
03:57PM 38.8244 -77.1158 333° Northwest 262 302 5,100 -1,500 Descending Washington Center
03:58PM 38.8758 -77.1781 317° Northwest 249 287 4,000 -600 Descending Washington Center
03:59PM 38.9333 -77.2333 323° Northwest 194 223 3,800 -480 Descending Potomac TRACON
04:00PM 38.9667 -77.1833 49° Northeast 161 185 3,000 -600 Descending Potomac TRACON
04:01PM 38.9500 -77.1333 113° Southeast 170 196 2,600 -780 Descending Potomac TRACON
04:02PM 38.9167 -77.1000 142° Southeast 167 192 1,500 -960 Descending Potomac TRACON
04:03PM 38.9000 -77.0667 123° Southeast 136 157 800 -780 Descending Potomac TRACON